Airfield :
LOGIN :

Register | Disclaimer

   EN    FR    IT 

 










Legend :    VFR   Marginal VFR   IFR   Intensive IFR   Very Intensive IFR
Visi :
Ceiling :
>= 8 km
>= 3000ft
5 to 8 km
1000 to 3000 ft
1500m to 5 km
500 to 1000 ft
800 to 1500m
200 to 500 ft
< 800m
< 200 ft
Symbols :   Thunderstorms  Fog  Heavy snow  Heavy precipitations  Wind > 20 kt
SIGMETs :     Misc.  Thunderstorms  Icing  Turbulence  Mountain Waves  Volcanic Ashes






- Airport Elevation : 148 ft
- IATA code : KHE


UKOH - Chernobayevka

CURRENT METAR :
  • 281630Z 08004MPS 3900 -SHRA BR BKN016CB 06/05 Q1008 R03/290250 NOSIG

EXPIRED METARs :
  • 281600Z 09004MPS 5000 -SHRA BR BKN005 BKN021CB 06/05 Q1009 R03/290250 NOSIG
  • 281530Z 10004MPS 5000 BR BKN003 BKN016CB 06/05 Q1008 R03/290250 NOSIG
  • 281500Z 09004MPS 5000 BR BKN005 BKN016CB 06/06 Q1008 R03/290250 NOSIG
  • 281430Z 09004MPS 5000 -SHRA BR BKN005 BKN033CB 06/06 Q1008 R03/290250 NOSIG
  • 281400Z 09004MPS 3500 -SHRA BR BKN005 BKN020CB 06/06 Q1008 R03/290250 NOSIG

TAF TAF UKOH
Valid from the 28 at 15:00 until the 29 at 00:00 UTC


281403Z 2815/2824 12003MPS 2100 -SHRA BR BKN003 BKN015CB TX04/2815Z TN01/2824Z
TEMPO 2815/2824 0300 FG VV001



MET'MAP, your aeronautical weather chart ! - Copyright ORBIFLY December 2007 - Disclaimer

ORBIFLY MET'MAP TEAM :

Programming & Development : Alexandra Zaïnal
Concept & original design : Baudouin d'Aumeries
Assistance for programming : Marc-Olivier Méhu
Technical & hardware support : Manuel Goepfert

Contact : metmap@orbifly.com




SOURCES & CREDITS :

   NOAA